createdAt,value
2022-10-23T00:00:18.032Z,83
2022-10-23T00:15:17.891Z,84
2022-10-23T00:30:17.894Z,84
2022-10-23T00:45:17.865Z,84
2022-10-23T01:00:17.872Z,85
2022-10-23T01:15:17.799Z,85
2022-10-23T01:30:17.839Z,85
2022-10-23T01:45:17.810Z,85
2022-10-23T02:00:17.771Z,85
2022-10-23T02:15:17.722Z,85
2022-10-23T02:30:17.706Z,86
2022-10-23T02:45:17.679Z,87
2022-10-23T03:00:17.656Z,87
2022-10-23T03:15:17.648Z,87
2022-10-23T03:30:17.621Z,87
2022-10-23T03:45:17.587Z,86
2022-10-23T04:00:17.591Z,86
2022-10-23T04:15:17.647Z,86
2022-10-23T04:30:17.577Z,85
2022-10-23T04:45:17.527Z,86
2022-10-23T05:00:17.554Z,86
2022-10-23T05:15:17.509Z,85
2022-10-23T05:30:17.496Z,85
2022-10-23T05:45:17.450Z,85
2022-10-23T06:00:17.464Z,85
2022-10-23T06:15:17.438Z,85
2022-10-23T06:30:17.420Z,84
2022-10-23T06:45:17.365Z,84
2022-10-23T07:00:17.370Z,84
2022-10-23T07:15:17.361Z,84
2022-10-23T07:30:17.330Z,84
2022-10-23T07:45:17.286Z,84
2022-10-23T08:00:17.339Z,84
2022-10-23T08:15:17.284Z,83
2022-10-23T08:30:17.250Z,83
2022-10-23T08:45:17.215Z,83
2022-10-23T09:00:17.210Z,82
2022-10-23T09:15:17.146Z,81
2022-10-23T09:30:17.176Z,80
2022-10-23T09:45:17.128Z,79
2022-10-23T10:00:17.116Z,80
2022-10-23T10:15:17.051Z,79
2022-10-23T10:30:17.072Z,78
2022-10-23T11:00:17.017Z,74
2022-10-23T11:15:16.971Z,69
2022-10-23T11:30:16.986Z,61
2022-10-23T11:45:16.954Z,57
2022-10-23T12:00:16.912Z,55
2022-10-23T12:15:16.885Z,51
2022-10-23T12:30:16.872Z,46
2022-10-23T12:45:16.819Z,43
2022-10-23T13:15:16.792Z,39
2022-10-23T13:30:16.757Z,39
2022-10-23T13:45:16.702Z,38
2022-10-23T14:00:16.719Z,38
2022-10-23T14:15:16.639Z,37
2022-10-23T14:30:16.649Z,37
2022-10-23T14:45:16.588Z,36
2022-10-23T15:00:16.591Z,37
2022-10-23T15:15:16.546Z,37
2022-10-23T15:30:16.553Z,40
2022-10-23T15:45:16.476Z,48
2022-10-23T16:00:19.668Z,50
2022-10-23T16:15:16.426Z,51
2022-10-23T16:30:16.442Z,53
2022-10-23T16:45:16.367Z,55
2022-10-23T17:00:16.351Z,56
2022-10-23T17:15:16.348Z,57
2022-10-23T17:30:16.292Z,57
2022-10-23T17:45:16.279Z,58
2022-10-23T18:00:16.288Z,59
2022-10-23T18:15:16.202Z,60
2022-10-23T18:30:16.240Z,61
2022-10-23T18:45:16.157Z,61
2022-10-23T19:00:16.174Z,58
2022-10-23T19:15:16.110Z,58
2022-10-23T19:30:17.280Z,57
2022-10-23T19:45:16.052Z,57
2022-10-23T20:00:16.071Z,52
2022-10-23T20:15:16.013Z,49
2022-10-23T20:30:16.015Z,49
2022-10-23T20:45:15.945Z,49
2022-10-23T21:00:15.933Z,48
2022-10-23T21:15:15.886Z,47
2022-10-23T21:30:15.901Z,47
2022-10-23T21:45:15.833Z,46
2022-10-23T22:00:15.853Z,45
2022-10-23T22:15:15.776Z,44
2022-10-23T22:30:15.814Z,43
2022-10-23T22:45:15.742Z,44
2022-10-23T23:00:15.746Z,44
2022-10-23T23:15:15.674Z,49
2022-10-23T23:30:15.671Z,56
2022-10-23T23:45:15.620Z,61
